Cap Castillo — A8PI5 — position and weather

sailwx.info

Track history (hours):
 
Tides and Currents Weather Stations Pressure Air Temp Water Temp Dewpoint Dewpoint Depression Visibility Wind Speed Wind Dir Waves Ship Positions

Cap Castillo

Last reported at 2015-Apr-01 02:31 UTC. Time now 2015-Apr-01 03:09 UTC.
Position N 29°55' W 090°06'.

Length 215 m; draft 8.8 m.

Type: Ship. MMSI: 636091558.

Date/timePositionNaut miles runAvg speedWind from/ knotsBaromVisibWave heightAir tempDewpointWater temp
2015-Apr-01 02:31N 29°55' W 090°06'0 0.0
2015-Apr-01 01:06N 29°55' W 090°06'0 0.0
2015-Mar-31 23:33N 29°55' W 090°06'0 0.0
2015-Mar-31 21:13N 29°55' W 090°06'0 0.0
2015-Mar-31 15:11N 29°55' W 090°07'0 0.0
2015-Mar-31 12:08N 29°55' W 090°06'0 0.0
2015-Mar-31 11:33N 29°55' W 090°06'0 0.0
2015-Mar-31 10:33N 29°55' W 090°06'0 0.0
2015-Mar-31 09:28N 29°55' W 090°06'1 1.6
2015-Mar-31 08:32N 29°55' W 090°05'9 6.6
2015-Mar-31 07:15N 29°55' W 089°55'9 7.7
2015-Mar-31 06:06N 29°47' W 090°01'41511.5
2015-Mar-29 18:00N 23°30' W 086°48'   050 / 201024.0 5.4 1.526.023.227.0
2015-Mar-24 01:33N 25°44' W 079°29'1716.9
2015-Mar-24 00:33N 26°01' W 079°26'1715.6
2015-Mar-23 23:29N 26°16' W 079°17'32 2.9
2015-Mar-23 12:18N 26°31' W 078°46'0 0.0
2015-Mar-23 11:21N 26°31' W 078°46'0 0.0
2015-Mar-23 09:09N 26°31' W 078°46'0 0.0
2015-Mar-23 00:17N 26°31' W 078°46'3 3.4
2015-Mar-22 23:29N 26°29' W 078°47'3 0.6
2015-Mar-22 19:07N 26°27' W 078°49'1 2.0
2015-Mar-22 18:25N 26°27' W 078°50'1713.9
2015-Mar-22 17:14N 26°22' W 079°08'1116.8
2015-Mar-22 16:33N 26°18' W 079°20'1716.7
2015-Mar-22 15:33N 26°13' W 079°38'1616.3
2015-Mar-22 14:33N 26°08' W 079°55'1111.2
2015-Mar-22 13:33N 26°05' W 080°07'1 0.8
2015-Mar-22 12:33N 26°04' W 080°07'0 0.0
2015-Mar-22 11:24N 26°04' W 080°07'0 0.0
2015-Mar-22 10:27N 26°04' W 080°07'0 0.0
2015-Mar-22 09:27N 26°04' W 080°07'0 0.0
2015-Mar-22 08:27N 26°04' W 080°07'0 0.0
2015-Mar-22 07:27N 26°04' W 080°07'0 0.0
2015-Mar-22 06:30N 26°04' W 080°07'0 0.0
2015-Mar-22 05:30N 26°04' W 080°07'0 0.0
2015-Mar-22 04:33N 26°04' W 080°07'0 0.0
2015-Mar-22 03:33N 26°04' W 080°07'  
Track history (hours):
 
Tides and Currents Weather Stations Pressure Air Temp Water Temp Dewpoint Dewpoint Depression Visibility Wind Speed Wind Dir Waves Ship Positions

Cap Castillo

Last reported at 2015-Apr-01 02:31 UTC. Time now 2015-Apr-01 03:09 UTC.
Position N 29°55' W 090°06'.

Length 215 m; draft 8.8 m.

Type: Ship. MMSI: 636091558.

Date/timePositionNaut miles runAvg speedWind from/ knotsBaromVisibWave heightAir tempDewpointWater temp
2015-Apr-01 02:31N 29°55' W 090°06'0 0.0
2015-Apr-01 01:06N 29°55' W 090°06'0 0.0
2015-Mar-31 23:33N 29°55' W 090°06'0 0.0
2015-Mar-31 21:13N 29°55' W 090°06'0 0.0
2015-Mar-31 15:11N 29°55' W 090°07'0 0.0
2015-Mar-31 12:08N 29°55' W 090°06'0 0.0
2015-Mar-31 11:33N 29°55' W 090°06'0 0.0
2015-Mar-31 10:33N 29°55' W 090°06'0 0.0
2015-Mar-31 09:28N 29°55' W 090°06'1 1.6
2015-Mar-31 08:32N 29°55' W 090°05'9 6.6
2015-Mar-31 07:15N 29°55' W 089°55'9 7.7
2015-Mar-31 06:06N 29°47' W 090°01'41511.5
2015-Mar-29 18:00N 23°30' W 086°48'   050 / 201024.0 5.4 1.526.023.227.0
2015-Mar-24 01:33N 25°44' W 079°29'1716.9
2015-Mar-24 00:33N 26°01' W 079°26'1715.6
2015-Mar-23 23:29N 26°16' W 079°17'32 2.9
2015-Mar-23 12:18N 26°31' W 078°46'0 0.0
2015-Mar-23 11:21N 26°31' W 078°46'0 0.0
2015-Mar-23 09:09N 26°31' W 078°46'0 0.0
2015-Mar-23 00:17N 26°31' W 078°46'3 3.4
2015-Mar-22 23:29N 26°29' W 078°47'3 0.6
2015-Mar-22 19:07N 26°27' W 078°49'1 2.0
2015-Mar-22 18:25N 26°27' W 078°50'1713.9
2015-Mar-22 17:14N 26°22' W 079°08'1116.8
2015-Mar-22 16:33N 26°18' W 079°20'1716.7
2015-Mar-22 15:33N 26°13' W 079°38'1616.3
2015-Mar-22 14:33N 26°08' W 079°55'1111.2
2015-Mar-22 13:33N 26°05' W 080°07'1 0.8
2015-Mar-22 12:33N 26°04' W 080°07'0 0.0
2015-Mar-22 11:24N 26°04' W 080°07'0 0.0
2015-Mar-22 10:27N 26°04' W 080°07'0 0.0
2015-Mar-22 09:27N 26°04' W 080°07'0 0.0
2015-Mar-22 08:27N 26°04' W 080°07'0 0.0
2015-Mar-22 07:27N 26°04' W 080°07'0 0.0
2015-Mar-22 06:30N 26°04' W 080°07'0 0.0
2015-Mar-22 05:30N 26°04' W 080°07'0 0.0
2015-Mar-22 04:33N 26°04' W 080°07'0 0.0
2015-Mar-22 03:33N 26°04' W 080°07'  

Dump ship's entire track history